Time;durP1;ratioP1;P1;durP2;ratioP2;P2;SDS_P1;SDS_P2;PMS_P1;PMS_P2;Temp;Humidity;BMP_temperature;BMP_pressure;BME280_temperature;BME280_humidity;BME280_pressure;Samples;Min_cycle;Max_cycle;Signal;HPM_P1;HPM_P2
2022/08/04 00:23:37;;;;;;;13.43;11.50;;;25.00;99.90;;;;;;5190350;23;20048;-92
2022/08/04 00:26:08;;;;;;;15.18;11.65;;;24.90;99.90;;;;;;5262494;23;20122;-91
2022/08/04 00:28:41;;;;;;;15.57;10.40;;;25.00;99.90;;;;;;4920786;29;20036;-92
2022/08/04 00:31:51;;;;;;;12.63;11.32;;;25.00;99.90;;;;;;4926574;23;20036;-94
2022/08/04 00:34:25;;;;;;;14.45;10.82;;;25.00;99.90;;;;;;4898996;29;20026;-91
2022/08/04 00:51:05;;;;;;;10.32;9.35;;;25.00;99.90;;;;;;5118380;23;20061;-93
2022/08/04 01:24:17;;;;;;;14.13;9.55;;;25.10;99.90;;;;;;5430293;23;20076;-93
2022/08/04 01:27:07;;;;;;;13.52;9.95;;;25.10;99.90;;;;;;4904149;23;20028;-92
2022/08/04 01:38:32;;;;;;;9.98;7.93;;;25.00;99.90;;;;;;5490452;23;20031;-92
2022/08/04 01:59:04;;;;;;;10.90;7.93;;;24.90;99.90;;;;;;4935773;23;20072;-93
2022/08/04 02:01:51;;;;;;;11.15;7.63;;;24.90;99.90;;;;;;4884042;29;20053;-93
2022/08/04 02:25:28;;;;;;;10.88;7.57;;;24.80;99.90;;;;;;5942564;23;21698;-90
2022/08/04 02:28:30;;;;;;;8.20;7.07;;;24.80;99.90;;;;;;5056468;23;20037;-89
2022/08/04 02:31:31;;;;;;;10.77;7.70;;;24.80;99.90;;;;;;4899188;29;20053;-91
2022/08/04 02:34:11;;;;;;;;;;;24.80;99.90;;;;;;4882490;29;20045;-92
2022/08/04 02:36:42;;;;;;;9.98;7.43;;;24.70;99.90;;;;;;4880355;29;19911;-91
2022/08/04 02:39:55;;;;;;;9.05;6.85;;;24.70;99.90;;;;;;4862858;29;20102;-92
2022/08/04 02:42:26;;;;;;;8.38;7.00;;;24.70;99.90;;;;;;4863906;29;20033;-92
2022/08/04 02:44:59;;;;;;;9.10;6.97;;;24.70;99.90;;;;;;4862883;29;20049;-92
2022/08/04 02:47:31;;;;;;;8.13;7.33;;;24.70;99.90;;;;;;4863912;29;20045;-93
2022/08/04 03:09:50;;;;;;;7.88;6.60;;;24.70;99.90;;;;;;5546764;23;20052;-92
2022/08/04 03:12:45;;;;;;;8.50;7.45;;;24.70;99.90;;;;;;4911217;29;20028;-92
2022/08/04 03:19:31;;;;;;;9.90;6.28;;;24.70;99.90;;;;;;4879439;29;20105;-92
2022/08/04 03:22:39;;;;;;;8.32;6.38;;;24.60;99.90;;;;;;4842442;29;20071;-93
2022/08/04 03:25:33;;;;;;;9.20;7.03;;;24.60;99.90;;;;;;4944929;23;20089;-92
2022/08/04 03:56:07;;;;;;;10.65;6.20;;;24.70;99.90;;;;;;4604157;23;20319;-92
2022/08/04 03:59:44;;;;;;;9.50;7.15;;;24.70;99.90;;;;;;4894922;29;20064;-93
2022/08/04 04:03:23;;;;;;;6.82;5.80;;;24.80;99.90;;;;;;4864267;29;20150;-92
2022/08/04 05:21:56;;;;;;;4.95;3.00;;;30.90;99.90;;;;;;4938391;29;20103;-93
2022/08/04 05:24:28;;;;;;;10.05;3.40;;;31.20;99.90;;;;;;4922452;29;20079;-93
2022/08/04 05:27:01;;;;;;;8.65;3.47;;;31.10;99.90;;;;;;4897498;29;20032;-94
2022/08/04 05:30:02;;;;;;;9.38;3.00;;;31.10;99.90;;;;;;4894364;29;20066;-92
2022/08/04 05:33:06;;;;;;;5.93;3.45;;;31.40;99.90;;;;;;4884374;29;20037;-95
2022/08/04 05:39:19;;;;;;;5.95;2.85;;;32.20;99.90;;;;;;4853857;29;20055;-91
2022/08/04 05:42:01;;;;;;;10.23;3.47;;;31.90;99.90;;;;;;4847370;29;20026;-92
2022/08/04 05:44:38;;;;;;;5.00;2.97;;;31.40;99.90;;;;;;4860062;29;20042;-94
2022/08/04 05:47:25;;;;;;;6.22;3.10;;;31.60;99.90;;;;;;4841945;29;20053;-93
2022/08/04 05:50:03;;;;;;;6.68;3.00;;;31.90;99.90;;;;;;4855845;29;20059;-93
2022/08/04 05:53:13;;;;;;;6.70;3.33;;;32.10;99.90;;;;;;4858190;29;20042;-93
2022/08/04 05:59:32;;;;;;;;;;;;;;;;;;;;;
2022/08/04 06:24:58;;;;;;;7.15;3.60;;;32.90;99.90;;;;;;3621574;23;20330;-92
2022/08/04 06:27:51;;;;;;;7.78;3.40;;;32.60;99.90;;;;;;4870747;29;20140;-92
2022/08/04 06:30:28;;;;;;;5.57;3.20;;;32.70;99.90;;;;;;4831919;29;20041;-93
2022/08/04 06:32:56;;;;;;;7.43;3.15;;;33.10;99.90;;;;;;4829145;29;20079;-94
2022/08/04 06:35:24;;;;;;;4.95;2.78;;;33.40;99.90;;;;;;4829195;29;20033;-94
2022/08/04 06:37:53;;;;;;;5.20;3.08;;;33.40;99.90;;;;;;4830464;29;20034;-91
2022/08/04 06:40:24;;;;;;;7.57;3.17;;;33.50;99.90;;;;;;4832637;29;20412;-91
2022/08/04 06:42:52;;;;;;;7.30;3.60;;;33.70;99.90;;;;;;4830101;29;20030;-92
2022/08/04 06:45:20;;;;;;;7.78;3.63;;;33.50;99.90;;;;;;4829420;29;20030;-92
2022/08/04 06:47:49;;;;;;;9.32;3.55;;;33.50;99.90;;;;;;4829915;29;20086;-90
2022/08/04 06:50:16;;;;;;;5.55;3.85;;;33.60;99.90;;;;;;4829326;29;20094;-92
2022/08/04 06:52:44;;;;;;;5.93;3.60;;;33.90;99.90;;;;;;4828922;29;20030;-91
2022/08/04 06:55:12;;;;;;;5.78;3.60;;;33.80;99.90;;;;;;4828722;29;20492;-92
2022/08/04 06:57:41;;;;;;;8.57;4.13;;;33.20;99.90;;;;;;4828926;29;20037;-90
2022/08/04 07:00:13;;;;;;;9.10;4.47;;;33.60;99.90;;;;;;4828680;29;20045;-90
2022/08/04 07:02:53;;;;;;;6.63;4.20;;;33.70;99.90;;;;;;4813606;29;20029;-90
2022/08/04 07:05:21;;;;;;;4.55;3.97;;;33.80;99.90;;;;;;4828721;29;20034;-90
2022/08/04 07:07:48;;;;;;;5.38;4.40;;;33.90;99.90;;;;;;4829022;29;20033;-93
2022/08/04 07:10:17;;;;;;;6.68;3.67;;;34.10;99.90;;;;;;4829591;29;20054;-94
2022/08/04 07:12:49;;;;;;;6.43;4.35;;;33.80;99.90;;;;;;4831286;29;20092;-93
2022/08/04 07:15:21;;;;;;;6.38;4.60;;;33.80;99.90;;;;;;4838242;29;20034;-94
2022/08/04 07:17:50;;;;;;;7.28;4.57;;;33.90;99.90;;;;;;4834861;29;20125;-93
2022/08/04 07:20:18;;;;;;;7.78;4.70;;;33.90;99.90;;;;;;4849364;29;20038;-93
2022/08/04 07:22:49;;;;;;;6.90;4.63;;;33.80;99.90;;;;;;4833347;29;20105;-91
2022/08/04 07:25:18;;;;;;;7.13;4.68;;;34.30;99.90;;;;;;4837009;29;20038;-95
2022/08/04 07:27:46;;;;;;;7.18;4.80;;;35.00;99.90;;;;;;4854383;29;20122;-92
2022/08/04 07:30:16;;;;;;;6.43;4.80;;;35.10;99.90;;;;;;4853016;29;20046;-94
2022/08/04 07:32:44;;;;;;;6.50;4.40;;;35.40;99.90;;;;;;4854167;29;20037;-92
2022/08/04 07:35:15;;;;;;;5.72;4.03;;;35.10;99.90;;;;;;4853194;29;20025;-93
2022/08/04 07:37:42;;;;;;;10.32;4.35;;;35.10;99.90;;;;;;4854214;29;20098;-93
2022/08/04 07:40:09;;;;;;;6.45;4.22;;;34.70;99.90;;;;;;4849318;29;20053;-91
2022/08/04 07:42:43;;;;;;;5.90;3.90;;;34.50;99.90;;;;;;4833195;29;20037;-93
2022/08/04 07:45:18;;;;;;;6.80;4.35;;;34.60;99.90;;;;;;4849715;29;20033;-91
2022/08/04 07:47:45;;;;;;;8.43;5.25;;;34.80;99.90;;;;;;4848519;29;20479;-94
2022/08/04 07:50:13;;;;;;;5.63;4.75;;;34.70;99.90;;;;;;4835641;29;20452;-91
2022/08/04 07:52:44;;;;;;;7.22;4.72;;;35.10;99.90;;;;;;4834737;29;20057;-94
2022/08/04 07:55:27;;;;;;;5.90;5.32;;;35.30;99.90;;;;;;4850716;29;20066;-93
2022/08/04 07:57:54;;;;;;;5.37;4.87;;;35.50;99.90;;;;;;4852058;29;20579;-91
2022/08/04 08:00:21;;;;;;;7.47;5.05;;;35.50;99.90;;;;;;4834356;29;20129;-92
2022/08/04 08:02:54;;;;;;;12.23;4.82;;;35.40;99.90;;;;;;4830493;29;20040;-91
2022/08/04 08:05:23;;;;;;;10.80;5.07;;;35.10;99.90;;;;;;4845349;29;20055;-94
2022/08/04 08:07:51;;;;;;;8.75;4.72;;;35.00;99.90;;;;;;4845049;29;20278;-92
2022/08/04 08:10:18;;;;;;;7.55;4.10;;;34.60;99.90;;;;;;4845035;29;20037;-91
2022/08/04 08:12:44;;;;;;;8.45;3.90;;;34.30;99.90;;;;;;4845200;29;20085;-91
2022/08/04 08:15:33;;;;;;;8.38;4.03;;;34.30;99.90;;;;;;4830621;29;20041;-90
2022/08/04 08:18:00;;;;;;;5.47;4.03;;;34.20;99.90;;;;;;4845938;29;20033;-92
2022/08/04 08:20:30;;;;;;;8.52;4.20;;;34.60;99.90;;;;;;4845601;29;20033;-91
2022/08/04 08:22:58;;;;;;;9.32;4.30;;;34.20;99.90;;;;;;4845833;29;20029;-90
2022/08/04 08:25:31;;;;;;;6.90;4.57;;;34.00;99.90;;;;;;4845658;29;20081;-94
2022/08/04 08:27:58;;;;;;;7.18;5.03;;;33.70;99.90;;;;;;4830927;29;20090;-92
2022/08/04 08:30:25;;;;;;;11.60;5.35;;;33.90;99.90;;;;;;4845657;29;20042;-92
2022/08/04 08:32:52;;;;;;;7.03;4.55;;;33.90;99.90;;;;;;4831038;29;20036;-92
2022/08/04 08:35:21;;;;;;;5.78;4.57;;;34.00;99.90;;;;;;4851768;29;20041;-93
2022/08/04 08:37:55;;;;;;;5.32;4.00;;;34.60;99.90;;;;;;4851806;29;20391;-92
2022/08/04 08:40:45;;;;;;;8.55;4.63;;;34.70;99.90;;;;;;4836176;29;20041;-93
2022/08/04 08:43:23;;;;;;;7.15;5.25;;;34.50;99.90;;;;;;4851568;29;20567;-90
2022/08/04 08:46:19;;;;;;;7.18;5.18;;;34.20;99.90;;;;;;4851757;29;20093;-92
2022/08/04 08:49:10;;;;;;;7.35;5.30;;;34.10;99.90;;;;;;4851442;29;20065;-91
2022/08/04 08:51:56;;;;;;;6.78;5.53;;;34.60;99.90;;;;;;4853240;29;20403;-82
2022/08/04 08:54:25;;;;;;;8.77;5.53;;;34.70;99.90;;;;;;4874709;29;20423;-79
2022/08/04 08:57:09;;;;;;;8.90;6.20;;;35.10;99.90;;;;;;4885927;29;20478;-79
2022/08/04 09:00:08;;;;;;;16.63;7.03;;;35.40;99.90;;;;;;4885379;29;20037;-77
2022/08/04 09:02:56;;;;;;;9.10;6.40;;;35.40;99.90;;;;;;4885524;29;20487;-77
2022/08/04 09:05:40;;;;;;;9.15;6.05;;;34.80;99.90;;;;;;4885453;29;20033;-77
2022/08/04 09:08:17;;;;;;;6.43;5.82;;;34.40;99.90;;;;;;4885342;29;20436;-78
2022/08/04 09:11:05;;;;;;;9.80;6.57;;;34.30;99.90;;;;;;4885341;29;20096;-77
2022/08/04 09:14:15;;;;;;;8.38;7.60;;;34.80;99.90;;;;;;4885433;29;20048;-76
2022/08/04 09:16:55;;;;;;;9.10;8.05;;;34.90;99.90;;;;;;4856695;29;20063;-76
2022/08/04 09:19:38;;;;;;;10.20;9.30;;;35.10;99.90;;;;;;4885476;29;20115;-77
2022/08/04 09:22:45;;;;;;;9.27;8.38;;;34.90;99.90;;;;;;4885648;29;20545;-76
2022/08/04 09:25:27;;;;;;;10.10;9.30;;;34.60;99.90;;;;;;4827858;29;20042;-77
2022/08/04 09:28:03;;;;;;;10.40;9.40;;;34.20;99.90;;;;;;4828076;29;20051;-77
2022/08/04 09:31:11;;;;;;;9.45;8.70;;;34.30;99.90;;;;;;4827754;29;20038;-78
2022/08/04 09:33:38;;;;;;;10.75;9.85;;;34.30;99.90;;;;;;4827333;29;20053;-77
2022/08/04 09:36:08;;;;;;;9.27;8.23;;;34.10;99.90;;;;;;4824311;29;20062;-77
2022/08/04 09:38:45;;;;;;;8.88;8.18;;;34.10;99.90;;;;;;4817197;29;20026;-77
2022/08/04 09:41:40;;;;;;;9.43;8.48;;;34.00;99.90;;;;;;4816785;29;20470;-77
2022/08/04 09:44:28;;;;;;;8.52;7.55;;;34.00;99.90;;;;;;4811847;29;20110;-76
2022/08/04 09:47:05;;;;;;;9.98;7.20;;;33.70;99.90;;;;;;4806116;29;20179;-76
2022/08/04 09:49:54;;;;;;;7.97;7.28;;;33.20;99.90;;;;;;4813023;29;20410;-77
2022/08/04 09:52:27;;;;;;;7.90;7.00;;;33.20;99.90;;;;;;4813578;29;20035;-76
2022/08/04 09:55:27;;;;;;;9.07;8.27;;;33.60;99.90;;;;;;4814743;29;20058;-77
2022/08/04 09:58:15;;;;;;;9.00;8.18;;;33.70;99.90;;;;;;4813711;29;20034;-75
2022/08/04 10:00:50;;;;;;;8.93;8.13;;;34.00;99.90;;;;;;4872137;29;20041;-76
2022/08/04 10:03:20;;;;;;;9.43;8.82;;;34.10;99.90;;;;;;4871334;29;20021;-76
2022/08/04 10:06:04;;;;;;;8.95;8.25;;;34.10;99.90;;;;;;4870264;29;20466;-76
2022/08/04 10:08:43;;;;;;;9.30;8.30;;;34.30;99.90;;;;;;4870612;29;20048;-76
2022/08/04 10:11:20;;;;;;;7.93;7.43;;;34.00;99.90;;;;;;4867953;29;20116;-76
2022/08/04 10:14:09;;;;;;;8.57;6.82;;;34.00;99.90;;;;;;4870001;29;20379;-77
2022/08/04 10:17:09;;;;;;;8.18;7.50;;;34.20;99.90;;;;;;4870818;29;20395;-77
2022/08/04 10:19:39;;;;;;;8.43;7.57;;;34.00;99.90;;;;;;4870708;29;20110;-76
2022/08/04 10:22:28;;;;;;;7.80;7.10;;;34.20;99.90;;;;;;4868587;29;20032;-76
2022/08/04 10:25:16;;;;;;;7.97;7.22;;;33.50;99.90;;;;;;4870834;29;20026;-76
2022/08/04 10:28:08;;;;;;;7.82;7.20;;;33.40;99.90;;;;;;4871892;29;20507;-76
2022/08/04 10:30:38;;;;;;;8.45;7.60;;;33.70;99.90;;;;;;4869075;29;20068;-77
2022/08/04 10:33:16;;;;;;;11.18;8.48;;;33.80;99.90;;;;;;4867347;29;20506;-76
2022/08/04 10:35:49;;;;;;;8.95;8.00;;;33.70;99.90;;;;;;4870113;29;20061;-77
2022/08/04 10:38:47;;;;;;;9.52;8.93;;;33.60;99.90;;;;;;4867458;29;20068;-77
2022/08/04 10:41:34;;;;;;;9.23;8.25;;;33.90;99.90;;;;;;4867279;29;20037;-78
2022/08/04 10:44:38;;;;;;;8.70;8.00;;;33.90;99.90;;;;;;4870609;29;20109;-76
2022/08/04 10:47:13;;;;;;;9.75;8.80;;;33.40;99.90;;;;;;4879798;29;20039;-77
2022/08/04 10:49:49;;;;;;;9.85;8.93;;;33.40;99.90;;;;;;4881156;29;20035;-78
2022/08/04 10:53:04;;;;;;;9.50;8.80;;;33.40;99.90;;;;;;4882235;29;20033;-92
2022/08/04 10:55:58;;;;;;;9.35;8.65;;;33.90;99.90;;;;;;4886017;23;20139;-93
2022/08/04 11:01:36;;;;;;;10.07;9.13;;;33.70;99.90;;;;;;5848466;23;20073;-93
2022/08/04 11:04:24;;;;;;;8.52;7.75;;;33.40;99.90;;;;;;4881064;29;20061;-88
2022/08/04 11:06:51;;;;;;;8.80;8.05;;;33.10;99.90;;;;;;4868398;29;20135;-89
2022/08/04 11:09:19;;;;;;;10.23;9.45;;;33.10;99.90;;;;;;4868061;29;20479;-88
2022/08/04 11:11:53;;;;;;;11.18;10.15;;;33.60;99.90;;;;;;4868437;29;20084;-89
2022/08/04 11:14:26;;;;;;;10.48;9.52;;;33.80;99.90;;;;;;4868525;29;20045;-89
2022/08/04 11:17:00;;;;;;;10.70;9.75;;;33.50;99.90;;;;;;4868138;29;20060;-87
2022/08/04 11:19:30;;;;;;;14.48;10.85;;;33.50;99.90;;;;;;4868052;29;20043;-88
2022/08/04 11:22:02;;;;;;;10.90;10.25;;;33.60;99.90;;;;;;4883504;29;20033;-89
2022/08/04 11:25:08;;;;;;;12.05;11.02;;;33.50;99.90;;;;;;4868094;29;20028;-90
2022/08/04 11:27:53;;;;;;;11.57;10.85;;;33.50;99.90;;;;;;4867920;29;20032;-88
2022/08/04 11:30:20;;;;;;;11.63;10.73;;;33.60;99.90;;;;;;4867624;29;20434;-88
2022/08/04 11:33:03;;;;;;;11.88;11.15;;;33.80;99.90;;;;;;4867739;29;20048;-89
2022/08/04 11:35:51;;;;;;;11.57;10.70;;;33.70;99.90;;;;;;4883276;29;20047;-90
2022/08/04 11:38:50;;;;;;;11.90;11.20;;;33.80;99.90;;;;;;4867927;29;20055;-89
2022/08/04 11:41:22;;;;;;;11.73;10.93;;;33.60;99.90;;;;;;4867645;29;20044;-90
2022/08/04 11:44:11;;;;;;;12.13;11.23;;;33.80;99.90;;;;;;4867728;29;20028;-90
2022/08/04 11:46:43;;;;;;;12.20;11.40;;;33.90;99.90;;;;;;4867572;29;20032;-92
2022/08/04 11:49:34;;;;;;;12.18;11.00;;;33.50;99.90;;;;;;4867626;29;20032;-91
2022/08/04 11:52:04;;;;;;;12.20;11.30;;;33.80;99.90;;;;;;4867607;29;20036;-90
2022/08/04 11:54:33;;;;;;;11.70;10.90;;;34.00;99.90;;;;;;4883260;29;20054;-90
2022/08/04 11:56:59;;;;;;;12.13;11.43;;;34.10;99.90;;;;;;4886267;29;20445;-91
2022/08/04 11:59:27;;;;;;;12.57;11.80;;;34.10;99.90;;;;;;4885768;29;20032;-90
2022/08/04 12:02:30;;;;;;;12.38;11.73;;;34.10;99.90;;;;;;4885923;29;20498;-89
2022/08/04 12:05:03;;;;;;;11.60;10.90;;;33.70;99.90;;;;;;4885799;29;20032;-91
2022/08/04 12:07:48;;;;;;;10.60;10.00;;;33.90;99.90;;;;;;4885947;29;20068;-90
2022/08/04 12:10:27;;;;;;;11.07;10.35;;;34.00;99.90;;;;;;4877335;29;20131;-90
2022/08/04 12:13:19;;;;;;;10.35;9.80;;;33.80;99.90;;;;;;4882618;29;20033;-90
2022/08/04 12:16:04;;;;;;;11.45;10.55;;;33.80;99.90;;;;;;4867415;29;20040;-91
2022/08/04 12:18:41;;;;;;;11.18;10.38;;;33.60;99.90;;;;;;4867142;29;20183;-93
2022/08/04 12:21:30;;;;;;;11.00;10.30;;;33.70;99.90;;;;;;4883584;29;20032;-94
2022/08/04 12:24:01;;;;;;;10.77;10.07;;;34.20;99.90;;;;;;4882530;29;20120;-92
2022/08/04 12:26:33;;;;;;;10.65;10.05;;;34.20;99.90;;;;;;4882415;29;20486;-91
2022/08/04 12:29:01;;;;;;;11.00;10.40;;;34.00;99.90;;;;;;4882476;29;20048;-91
2022/08/04 12:31:30;;;;;;;12.02;11.18;;;34.00;99.90;;;;;;4866865;29;20077;-92
2022/08/04 12:34:19;;;;;;;12.02;11.23;;;33.90;99.90;;;;;;4866992;29;20032;-92
2022/08/04 12:36:56;;;;;;;12.05;11.07;;;34.10;99.90;;;;;;4848243;29;20051;-90
2022/08/04 12:39:26;;;;;;;11.95;11.23;;;34.00;99.90;;;;;;4882221;29;20036;-91
2022/08/04 12:42:51;;;;;;;11.23;10.50;;;34.10;99.90;;;;;;4866918;29;20037;-91
2022/08/04 12:45:21;;;;;;;11.60;10.90;;;34.20;99.90;;;;;;4844386;29;20557;-90
2022/08/04 12:47:50;;;;;;;11.43;10.70;;;34.10;99.90;;;;;;4829515;29;20042;-92
2022/08/04 12:50:18;;;;;;;11.65;10.98;;;34.10;99.90;;;;;;4829347;29;20040;-93
2022/08/04 12:52:50;;;;;;;11.35;10.70;;;34.10;99.90;;;;;;4829331;29;20061;-91
2022/08/04 12:55:19;;;;;;;11.70;11.10;;;34.20;99.90;;;;;;4829384;29;20131;-91
2022/08/04 12:57:46;;;;;;;12.60;11.90;;;34.30;99.90;;;;;;4829550;29;20037;-91
2022/08/04 13:00:24;;;;;;;12.70;11.70;;;34.30;99.90;;;;;;4829337;29;20610;-92
2022/08/04 13:02:53;;;;;;;12.45;11.57;;;34.40;99.90;;;;;;4829045;29;20507;-90
2022/08/04 13:05:21;;;;;;;11.45;10.80;;;34.20;99.90;;;;;;4844363;29;20034;-90
2022/08/04 13:07:52;;;;;;;12.27;11.50;;;34.00;99.90;;;;;;4829299;29;20070;-92
2022/08/04 13:10:21;;;;;;;11.90;11.20;;;34.10;99.90;;;;;;4829393;29;20044;-91
2022/08/04 13:12:59;;;;;;;12.60;11.60;;;34.00;99.90;;;;;;4829319;29;20037;-91
2022/08/04 13:15:29;;;;;;;12.70;11.88;;;34.10;99.90;;;;;;4829393;29;20094;-90
2022/08/04 13:18:07;;;;;;;12.48;11.88;;;34.20;99.90;;;;;;4829330;29;20504;-93
2022/08/04 13:20:38;;;;;;;12.13;11.38;;;34.10;99.90;;;;;;4838962;29;20052;-92
2022/08/04 13:23:08;;;;;;;12.13;11.43;;;34.20;99.90;;;;;;4887610;29;20029;-90
2022/08/04 13:25:40;;;;;;;12.13;11.38;;;34.20;99.90;;;;;;4877438;29;20041;-92
2022/08/04 13:28:19;;;;;;;12.25;11.40;;;34.20;99.90;;;;;;4875377;29;20044;-91
2022/08/04 13:30:51;;;;;;;11.70;10.93;;;34.10;99.90;;;;;;4885493;29;20028;-92
2022/08/04 13:33:20;;;;;;;12.10;11.20;;;34.00;99.90;;;;;;4885514;29;20535;-92
2022/08/04 13:35:47;;;;;;;11.52;10.77;;;34.00;99.90;;;;;;4869900;29;20029;-90
2022/08/04 13:38:16;;;;;;;12.02;11.35;;;34.20;99.90;;;;;;4870085;29;20036;-90
2022/08/04 13:40:44;;;;;;;12.55;11.70;;;34.30;99.90;;;;;;4869686;29;20046;-91
2022/08/04 13:43:41;;;;;;;12.52;11.70;;;34.20;99.90;;;;;;4885165;29;20041;-90
2022/08/04 13:46:08;;;;;;;12.55;11.82;;;34.10;99.90;;;;;;4885249;29;20061;-91
2022/08/04 13:48:37;;;;;;;12.10;11.40;;;34.40;99.90;;;;;;4869716;29;20100;-91
2022/08/04 13:51:05;;;;;;;12.02;11.32;;;34.50;99.90;;;;;;4869463;29;20032;-92
2022/08/04 13:53:36;;;;;;;12.30;11.55;;;34.50;99.90;;;;;;4869761;29;20475;-92
2022/08/04 13:56:06;;;;;;;12.63;11.80;;;34.20;99.90;;;;;;4885151;29;20029;-91
2022/08/04 13:58:34;;;;;;;12.35;11.70;;;34.20;99.90;;;;;;4885137;29;20501;-90
2022/08/04 14:01:08;;;;;;;12.57;11.88;;;34.10;99.90;;;;;;4869351;29;20461;-92
2022/08/04 14:04:06;;;;;;;12.68;12.07;;;34.20;99.90;;;;;;4884806;29;20044;-91
2022/08/04 14:07:02;;;;;;;13.32;12.15;;;34.20;99.90;;;;;;4831672;29;20098;-92
2022/08/04 14:09:31;;;;;;;12.13;11.52;;;34.30;99.90;;;;;;4831603;29;20057;-92
2022/08/04 14:12:07;;;;;;;12.98;12.27;;;34.30;99.90;;;;;;4832387;29;20041;-90
2022/08/04 14:14:42;;;;;;;13.07;12.38;;;34.30;99.90;;;;;;4831749;29;20082;-91
2022/08/04 14:17:12;;;;;;;13.30;12.48;;;34.30;99.90;;;;;;4831769;29;20403;-91
2022/08/04 14:19:57;;;;;;;12.80;12.10;;;34.40;99.90;;;;;;4831585;29;20042;-91
2022/08/04 14:22:26;;;;;;;12.80;12.10;;;34.40;99.90;;;;;;4831562;29;20445;-93
2022/08/04 14:24:57;;;;;;;12.77;12.18;;;34.20;99.90;;;;;;4831683;29;20499;-92
2022/08/04 14:27:24;;;;;;;12.90;12.20;;;34.30;99.90;;;;;;4831428;29;20060;-91
2022/08/04 14:29:50;;;;;;;13.15;12.45;;;34.40;99.90;;;;;;4831373;29;20135;-91
2022/08/04 14:32:17;;;;;;;12.50;11.77;;;34.40;99.90;;;;;;4830937;29;20488;-92
2022/08/04 14:34:44;;;;;;;12.65;12.02;;;34.30;99.90;;;;;;4831368;29;20033;-91
2022/08/04 14:37:14;;;;;;;12.80;12.10;;;34.30;99.90;;;;;;4831636;29;20098;-91
2022/08/04 14:39:42;;;;;;;12.82;12.02;;;34.20;99.90;;;;;;4831060;29;20548;-90
2022/08/04 14:42:09;;;;;;;13.15;12.45;;;34.20;99.90;;;;;;4831873;29;20026;-91
2022/08/04 14:44:54;;;;;;;12.98;12.23;;;34.40;99.90;;;;;;4883973;29;20044;-92
2022/08/04 14:47:41;;;;;;;13.23;12.30;;;34.20;99.90;;;;;;4868633;29;20092;-92
2022/08/04 14:50:08;;;;;;;12.23;11.63;;;34.30;99.90;;;;;;4871286;29;20119;-93
2022/08/04 14:52:36;;;;;;;13.68;12.77;;;34.30;99.90;;;;;;4868462;29;20028;-92
2022/08/04 14:55:19;;;;;;;13.27;12.20;;;34.20;99.90;;;;;;4884077;29;20037;-92
2022/08/04 14:57:47;;;;;;;12.50;11.85;;;34.10;99.90;;;;;;4884234;29;20044;-93
2022/08/04 15:00:25;;;;;;;12.80;12.10;;;33.70;99.90;;;;;;4868383;29;20043;-92
2022/08/04 15:02:52;;;;;;;13.25;12.40;;;33.70;99.90;;;;;;4883635;29;20075;-91
2022/08/04 15:05:20;;;;;;;13.05;12.35;;;33.70;99.90;;;;;;4883778;29;20033;-91
2022/08/04 15:07:47;;;;;;;12.70;11.90;;;34.00;99.90;;;;;;4883875;29;20032;-92
2022/08/04 15:10:13;;;;;;;13.43;12.50;;;34.20;99.90;;;;;;4868164;29;20029;-93
2022/08/04 15:12:40;;;;;;;12.98;12.10;;;34.20;99.90;;;;;;4883594;29;20107;-92
2022/08/04 15:15:07;;;;;;;12.82;12.07;;;33.90;99.90;;;;;;4868357;29;20040;-92
2022/08/04 15:17:33;;;;;;;12.10;11.50;;;33.90;99.90;;;;;;4868399;29;20028;-90
2022/08/04 15:20:00;;;;;;;12.77;12.18;;;34.00;99.90;;;;;;4868200;29;20520;-92
2022/08/04 15:22:27;;;;;;;12.93;12.23;;;33.60;99.50;;;;;;4883434;29;20032;-91
2022/08/04 15:24:53;;;;;;;12.25;11.60;;;33.40;99.90;;;;;;4868108;29;20482;-92
2022/08/04 15:27:24;;;;;;;12.43;11.57;;;33.60;99.90;;;;;;4883364;29;20799;-92
2022/08/04 15:29:51;;;;;;;12.48;11.77;;;33.60;99.90;;;;;;4867765;29;20096;-92
2022/08/04 15:32:18;;;;;;;12.48;11.77;;;33.70;99.90;;;;;;4867790;29;20025;-91
2022/08/04 15:34:49;;;;;;;12.50;11.70;;;33.70;99.90;;;;;;4867999;29;20379;-93
2022/08/04 15:37:30;;;;;;;12.07;11.48;;;33.70;99.90;;;;;;4883330;29;20032;-93
2022/08/04 15:40:13;;;;;;;12.30;11.70;;;33.70;99.90;;;;;;4867597;29;20135;-93
2022/08/04 15:42:58;;;;;;;12.02;11.43;;;33.80;99.90;;;;;;4883098;29;20040;-92
2022/08/04 15:45:25;;;;;;;12.27;11.68;;;33.90;99.90;;;;;;4882853;29;20051;-93
2022/08/04 15:48:04;;;;;;;12.00;11.40;;;33.70;99.90;;;;;;4867894;29;20029;-92
2022/08/04 15:50:31;;;;;;;12.50;11.80;;;33.70;99.90;;;;;;4882788;29;20047;-94
2022/08/04 15:53:00;;;;;;;12.57;11.70;;;33.70;99.90;;;;;;4867561;29;20033;-92
2022/08/04 15:55:38;;;;;;;12.80;12.10;;;33.60;99.90;;;;;;4867584;29;20039;-92
2022/08/04 15:58:09;;;;;;;12.43;11.80;;;33.40;99.90;;;;;;4882947;29;20040;-92
2022/08/04 16:00:54;;;;;;;12.27;11.63;;;33.30;99.90;;;;;;4867404;29;20100;-92
2022/08/04 16:03:44;;;;;;;12.65;11.85;;;33.20;99.90;;;;;;4882714;29;20383;-91
2022/08/04 16:06:14;;;;;;;12.88;12.07;;;33.20;99.90;;;;;;4882914;29;20040;-94
2022/08/04 16:08:49;;;;;;;12.45;11.60;;;33.10;99.90;;;;;;4883434;29;20047;-93
2022/08/04 16:11:22;;;;;;;11.90;11.25;;;33.10;99.90;;;;;;4882689;29;20036;-92
2022/08/04 16:14:08;;;;;;;12.20;11.50;;;32.90;99.30;;;;;;4883253;29;20039;-91
2022/08/04 16:16:41;;;;;;;12.20;11.50;;;32.90;99.30;;;;;;4867581;29;20032;-89
2022/08/04 16:19:26;;;;;;;12.13;11.52;;;33.00;99.50;;;;;;4882505;29;20483;-90
2022/08/04 16:21:58;;;;;;;12.20;11.43;;;33.00;99.30;;;;;;4867146;29;20071;-91
2022/08/04 16:24:42;;;;;;;11.65;11.07;;;33.00;98.10;;;;;;4867816;29;20032;-91
2022/08/04 16:27:10;;;;;;;12.25;11.55;;;32.90;99.00;;;;;;4884060;29;20390;-90
2022/08/04 16:29:41;;;;;;;12.10;11.40;;;32.70;99.60;;;;;;4868802;29;20032;-90
2022/08/04 16:32:12;;;;;;;12.88;11.98;;;32.70;99.90;;;;;;4882476;29;20077;-92
2022/08/04 16:35:02;;;;;;;12.50;11.90;;;32.70;99.90;;;;;;4867224;29;20035;-90
2022/08/04 16:37:41;;;;;;;12.02;11.43;;;32.60;99.90;;;;;;4882420;29;20040;-91
2022/08/04 16:40:39;;;;;;;12.10;11.50;;;32.50;99.90;;;;;;4866767;29;20041;-90
2022/08/04 16:43:16;;;;;;;11.95;11.25;;;32.30;99.90;;;;;;4866963;29;20052;-89
2022/08/04 16:45:49;;;;;;;13.30;12.18;;;32.20;99.90;;;;;;4867017;29;20047;-89
2022/08/04 16:48:35;;;;;;;11.90;11.30;;;32.10;99.90;;;;;;4866954;29;20029;-90
2022/08/04 16:51:05;;;;;;;11.85;11.25;;;32.10;99.90;;;;;;4882482;29;20024;-89
2022/08/04 16:53:44;;;;;;;12.98;12.07;;;32.00;99.90;;;;;;4866917;29;20501;-92
2022/08/04 16:56:18;;;;;;;12.98;11.63;;;32.00;99.90;;;;;;4885507;29;20517;-92
2022/08/04 16:58:46;;;;;;;;;;;32.00;99.90;;;;;;4886306;29;20033;-90
2022/08/04 17:01:18;;;;;;;12.88;12.07;;;32.10;99.90;;;;;;4885886;29;19911;-91
2022/08/04 17:03:50;;;;;;;12.45;11.60;;;32.00;99.90;;;;;;4867288;29;20049;-92
2022/08/04 17:06:17;;;;;;;13.18;12.27;;;31.90;99.90;;;;;;4867316;29;20033;-91
2022/08/04 17:08:47;;;;;;;12.95;12.05;;;31.70;99.90;;;;;;4851869;29;20033;-92
2022/08/04 17:11:15;;;;;;;13.20;12.30;;;31.60;99.90;;;;;;4867265;29;20116;-92
2022/08/04 17:13:46;;;;;;;12.80;12.07;;;31.60;99.90;;;;;;4851888;29;20061;-93
2022/08/04 17:16:18;;;;;;;11.75;11.10;;;31.50;99.90;;;;;;4852104;29;20116;-91
2022/08/04 17:18:47;;;;;;;12.13;11.30;;;31.40;99.90;;;;;;4867482;29;20033;-93
2022/08/04 17:21:26;;;;;;;11.85;11.05;;;31.30;99.90;;;;;;4851693;29;20059;-92
2022/08/04 17:23:57;;;;;;;12.02;11.32;;;31.20;99.90;;;;;;4852682;29;20083;-91
2022/08/04 17:26:26;;;;;;;12.27;11.48;;;31.20;99.90;;;;;;4867079;29;20039;-93
2022/08/04 17:28:54;;;;;;;11.85;11.13;;;31.10;99.90;;;;;;4851585;29;20044;-92
2022/08/04 17:31:25;;;;;;;13.32;12.20;;;31.10;99.90;;;;;;4866871;29;20041;-92
2022/08/04 17:33:54;;;;;;;13.07;11.93;;;31.00;99.90;;;;;;4867124;29;20060;-91
2022/08/04 17:36:27;;;;;;;12.05;11.38;;;31.00;99.90;;;;;;4851509;29;20037;-93
2022/08/04 17:38:58;;;;;;;12.68;11.60;;;30.90;99.90;;;;;;4851411;29;20052;-91
2022/08/04 17:41:29;;;;;;;11.80;11.00;;;30.90;99.90;;;;;;4866701;29;20096;-91
2022/08/04 17:43:59;;;;;;;11.98;11.02;;;30.80;99.90;;;;;;4866734;29;20546;-91
2022/08/04 17:46:40;;;;;;;11.77;10.90;;;30.70;99.90;;;;;;4866731;29;20037;-92
2022/08/04 17:49:15;;;;;;;11.88;10.77;;;30.60;99.90;;;;;;4852813;29;20065;-91
2022/08/04 17:51:47;;;;;;;14.48;12.82;;;30.50;99.90;;;;;;4851303;29;20037;-91
2022/08/04 17:54:35;;;;;;;14.65;11.75;;;30.50;99.90;;;;;;4851283;29;20550;-92
2022/08/04 17:57:19;;;;;;;12.32;11.00;;;30.40;99.90;;;;;;4851086;29;20540;-92
2022/08/04 17:59:54;;;;;;;12.10;10.80;;;30.30;99.90;;;;;;4850774;29;20044;-92
2022/08/04 18:02:26;;;;;;;11.57;10.60;;;30.20;99.90;;;;;;4860243;29;20060;-90
2022/08/04 18:04:53;;;;;;;12.18;10.80;;;30.20;99.90;;;;;;4886005;29;20032;-89